ZBTJ/TSN METAR and TAF weather

Enter ICAO airport designator
Station Type Date Time Source
ZBTJ METAR 2019/02/23 00:30 UTC NOAA

ZBTJ 230030Z 00000MPS 8000 NSC 03/M08 Q1028 NOSIG


Station Type Date Time Source
ZBTJ Decoded METAR 2019/02/23 00:30 UTC NOAA

Tianjin / Zhangguizhu, China (ZBTJ) 39-11N 117-21E
Feb 22, 2019 - 07:30 PM EST / 2019.02.23 0030 UTC
Wind: Calm:0
Visibility: 4 mile(s):0
Temperature: 37 F (3 C)
Dew Point: 17 F (-8 C)
Relative Humidity: 44%
Pressure (altimeter): 30.36 in. Hg (1028 hPa)
ob: ZBTJ 230030Z 00000MPS 8000 NSC 03/M08 Q1028 NOSIG
cycle: 0

Station Type Date Time Source
ZBTJ TAF 2019/02/22 18:03 UTC NOAA

TAF ZBTJ 221512Z 2218/2318 22003MPS 3000 HZ NSC TX11/2306Z TNM03/22Z


Example: see airport list